Zim Vancouver — A8LK5 — position and weather

sailwx.info

Track history (hours):
 
Tides and Currents Weather Stations Pressure Air Temp Water Temp Dewpoint Dewpoint Depression Visibility Wind Speed Wind Dir Waves Ship Positions

Zim Vancouver

Last reported at 2018-Apr-19 08:58 UTC. Time now 2018-Apr-22 06:57 UTC.
Position N 23°17' E 117°46'.

Length 260 m; draft 12.5 m.

Type: Ship. MMSI: 636013214.

Date/timePositionNaut miles runAvg speedWind from/ knotsBaromVisibWave heightAir tempDewpointWater temp
2018-Apr-19 08:58N 23°17' E 117°46'1319.6
2018-Apr-19 08:16N 23°25' E 117°58'619.7
2018-Apr-19 07:59N 23°28' E 118°03'919.8
2018-Apr-19 07:30N 23°35' E 118°10'1019.8
2018-Apr-19 07:00N 23°42' E 118°18'1019.8
2018-Apr-19 06:30N 23°48' E 118°26'1019.8
2018-Apr-19 05:59N 23°56' E 118°34'1519.7
2018-Apr-19 05:14N 24°06' E 118°46'619.7
2018-Apr-19 04:56N 24°10' E 118°50'919.7
2018-Apr-19 04:30N 24°16' E 118°57'1019.9
2018-Apr-19 04:00N 24°23' E 119°05'1019.7
2018-Apr-19 03:30N 24°30' E 119°12'1019.4
2018-Apr-19 03:00N 24°36' E 119°21'1019.3
2018-Apr-19 02:30N 24°43' E 119°28'38110.9
2018-Apr-17 15:35N 30°38' E 122°03'0 0.3
2018-Apr-17 15:23N 30°38' E 122°03'0 0.0
2018-Apr-17 12:38N 30°38' E 122°03'0 0.4
2018-Apr-17 11:35N 30°37' E 122°03'0 0.4
2018-Apr-17 11:01N 30°37' E 122°03'0 8.4
2018-Apr-17 10:59N 30°37' E 122°03'1712.3
2018-Apr-17 09:38N 30°32' E 122°22'45 1.3
2018-Apr-15 22:19N 29°57' E 121°51'0 0.0
2018-Apr-15 21:49N 29°57' E 121°51'0 0.0
2018-Apr-15 21:28N 29°57' E 121°51'0 0.0
2018-Apr-15 20:58N 29°57' E 121°51'0 0.0
2018-Apr-15 20:19N 29°57' E 121°51'0 0.0
2018-Apr-15 19:55N 29°57' E 121°51'  
2018-Apr-13 12:36N 35°59' E 120°31'313.8
2018-Apr-13 12:24N 35°60' E 120°27'712.7
2018-Apr-13 11:52N 36°01' E 120°19'3 8.9
2018-Apr-13 11:29N 36°02' E 120°15'2 1.7
2018-Apr-13 10:22N 36°01' E 120°14'0 0.0
2018-Apr-13 09:52N 36°01' E 120°14'0 0.0
2018-Apr-13 09:16N 36°01' E 120°14'0 0.0
2018-Apr-13 08:55N 36°01' E 120°14'0 0.0
2018-Apr-13 08:30N 36°01' E 120°14'0 0.0
2018-Apr-13 07:58N 36°01' E 120°14'0 0.0
2018-Apr-13 06:16N 36°01' E 120°14'0 0.0
2018-Apr-13 05:58N 36°01' E 120°14'0 0.0
2018-Apr-13 05:04N 36°01' E 120°14'0 0.0
2018-Apr-13 04:39N 36°01' E 120°14'0 0.0
2018-Apr-13 04:25N 36°01' E 120°14'0 0.0
2018-Apr-13 03:53N 36°01' E 120°14'0 0.0
2018-Apr-13 03:01N 36°01' E 120°14'0 0.0
2018-Apr-13 03:00N 36°01' E 120°14'0 0.0
2018-Apr-13 02:27N 36°01' E 120°14'0 0.0
2018-Apr-13 01:55N 36°01' E 120°14'0 0.0
2018-Apr-12 23:28N 36°01' E 120°14'0 0.3
2018-Apr-12 22:49N 36°01' E 120°14'5 6.6
2018-Apr-12 22:00N 36°01' E 120°20'4 7.4
2018-Apr-12 21:30N 36°01' E 120°25'4 8.4
2018-Apr-12 21:00N 35°60' E 120°30'  
Track history (hours):
 
Tides and Currents Weather Stations Pressure Air Temp Water Temp Dewpoint Dewpoint Depression Visibility Wind Speed Wind Dir Waves Ship Positions

Zim Vancouver

Last reported at 2018-Apr-19 08:58 UTC. Time now 2018-Apr-22 06:57 UTC.
Position N 23°17' E 117°46'.

Length 260 m; draft 12.5 m.

Type: Ship. MMSI: 636013214.

Date/timePositionNaut miles runAvg speedWind from/ knotsBaromVisibWave heightAir tempDewpointWater temp
2018-Apr-19 08:58N 23°17' E 117°46'1319.6
2018-Apr-19 08:16N 23°25' E 117°58'619.7
2018-Apr-19 07:59N 23°28' E 118°03'919.8
2018-Apr-19 07:30N 23°35' E 118°10'1019.8
2018-Apr-19 07:00N 23°42' E 118°18'1019.8
2018-Apr-19 06:30N 23°48' E 118°26'1019.8
2018-Apr-19 05:59N 23°56' E 118°34'1519.7
2018-Apr-19 05:14N 24°06' E 118°46'619.7
2018-Apr-19 04:56N 24°10' E 118°50'919.7
2018-Apr-19 04:30N 24°16' E 118°57'1019.9
2018-Apr-19 04:00N 24°23' E 119°05'1019.7
2018-Apr-19 03:30N 24°30' E 119°12'1019.4
2018-Apr-19 03:00N 24°36' E 119°21'1019.3
2018-Apr-19 02:30N 24°43' E 119°28'38110.9
2018-Apr-17 15:35N 30°38' E 122°03'0 0.3
2018-Apr-17 15:23N 30°38' E 122°03'0 0.0
2018-Apr-17 12:38N 30°38' E 122°03'0 0.4
2018-Apr-17 11:35N 30°37' E 122°03'0 0.4
2018-Apr-17 11:01N 30°37' E 122°03'0 8.4
2018-Apr-17 10:59N 30°37' E 122°03'1712.3
2018-Apr-17 09:38N 30°32' E 122°22'45 1.3
2018-Apr-15 22:19N 29°57' E 121°51'0 0.0
2018-Apr-15 21:49N 29°57' E 121°51'0 0.0
2018-Apr-15 21:28N 29°57' E 121°51'0 0.0
2018-Apr-15 20:58N 29°57' E 121°51'0 0.0
2018-Apr-15 20:19N 29°57' E 121°51'0 0.0
2018-Apr-15 19:55N 29°57' E 121°51'  
2018-Apr-13 12:36N 35°59' E 120°31'313.8
2018-Apr-13 12:24N 35°60' E 120°27'712.7
2018-Apr-13 11:52N 36°01' E 120°19'3 8.9
2018-Apr-13 11:29N 36°02' E 120°15'2 1.7
2018-Apr-13 10:22N 36°01' E 120°14'0 0.0
2018-Apr-13 09:52N 36°01' E 120°14'0 0.0
2018-Apr-13 09:16N 36°01' E 120°14'0 0.0
2018-Apr-13 08:55N 36°01' E 120°14'0 0.0
2018-Apr-13 08:30N 36°01' E 120°14'0 0.0
2018-Apr-13 07:58N 36°01' E 120°14'0 0.0
2018-Apr-13 06:16N 36°01' E 120°14'0 0.0
2018-Apr-13 05:58N 36°01' E 120°14'0 0.0
2018-Apr-13 05:04N 36°01' E 120°14'0 0.0
2018-Apr-13 04:39N 36°01' E 120°14'0 0.0
2018-Apr-13 04:25N 36°01' E 120°14'0 0.0
2018-Apr-13 03:53N 36°01' E 120°14'0 0.0
2018-Apr-13 03:01N 36°01' E 120°14'0 0.0
2018-Apr-13 03:00N 36°01' E 120°14'0 0.0
2018-Apr-13 02:27N 36°01' E 120°14'0 0.0
2018-Apr-13 01:55N 36°01' E 120°14'0 0.0
2018-Apr-12 23:28N 36°01' E 120°14'0 0.3
2018-Apr-12 22:49N 36°01' E 120°14'5 6.6
2018-Apr-12 22:00N 36°01' E 120°20'4 7.4
2018-Apr-12 21:30N 36°01' E 120°25'4 8.4
2018-Apr-12 21:00N 35°60' E 120°30'  

Dump ship's entire track history